Time;durP1;ratioP1;P1;durP2;ratioP2;P2;SDS_P1;SDS_P2;PMS_P1;PMS_P2;Temp;Humidity;BMP_temperature;BMP_pressure;BME280_temperature;BME280_humidity;BME280_pressure;Samples;Min_cycle;Max_cycle;Signal;HPM_P1;HPM_P2
2022/05/31 18:48:30;;;;;;;11.77;3.60;;;;;;;;;;10525657;27;20623;-43
2022/05/31 18:53:31;;;;;;;7.97;3.20;;;;;;;;;;10502228;28;20032;-44
2022/05/31 18:58:36;;;;;;;6.45;3.03;;;;;;;;;;10524684;28;20036;-45
2022/05/31 19:03:41;;;;;;;6.25;3.22;;;;;;;;;;10517712;28;20154;-43
2022/05/31 19:08:42;;;;;;;11.52;3.40;;;;;;;;;;10521935;28;20036;-45
2022/05/31 19:13:46;;;;;;;9.27;4.22;;;;;;;;;;10525520;28;20029;-45
2022/05/31 19:18:54;;;;;;;9.52;3.80;;;;;;;;;;10519533;28;20070;-42
2022/05/31 19:23:55;;;;;;;8.18;3.67;;;;;;;;;;10521121;28;20040;-42
2022/05/31 19:28:55;;;;;;;7.88;4.03;;;;;;;;;;10516881;28;20062;-44
2022/05/31 19:34:10;;;;;;;10.90;3.85;;;;;;;;;;10517600;28;20115;-45
2022/05/31 19:39:11;;;;;;;9.18;3.97;;;;;;;;;;10493435;28;20052;-43
2022/05/31 19:44:17;;;;;;;11.15;4.38;;;;;;;;;;10521711;28;20129;-43
2022/05/31 19:49:18;;;;;;;13.93;4.65;;;;;;;;;;10502925;28;20025;-43
2022/05/31 19:54:30;;;;;;;8.57;4.40;;;;;;;;;;10522103;28;20032;-43
2022/05/31 19:59:31;;;;;;;8.63;4.20;;;;;;;;;;10492966;28;20055;-44
2022/05/31 20:04:31;;;;;;;14.95;5.28;;;;;;;;;;10480129;28;20116;-44
2022/05/31 20:14:51;;;;;;;11.20;4.65;;;;;;;;;;10493142;28;20119;-44
2022/05/31 20:19:54;;;;;;;8.93;4.45;;;;;;;;;;10483858;28;20360;-44
2022/05/31 20:24:56;;;;;;;16.33;4.80;;;;;;;;;;10492462;28;20051;-43
2022/05/31 20:29:57;;;;;;;9.55;4.28;;;;;;;;;;10485328;28;20024;-45
2022/05/31 20:34:57;;;;;;;8.52;4.32;;;;;;;;;;10491334;28;20043;-45
2022/05/31 20:39:58;;;;;;;12.50;3.50;;;;;;;;;;10491928;28;20039;-40
2022/05/31 20:44:58;;;;;;;14.93;4.13;;;;;;;;;;10493587;28;20076;-41
2022/05/31 20:50:01;;;;;;;9.52;3.53;;;;;;;;;;10484417;28;20370;-41
2022/05/31 20:55:04;;;;;;;6.47;3.45;;;;;;;;;;10490788;28;20024;-41
2022/05/31 21:00:06;;;;;;;11.15;3.88;;;;;;;;;;10462981;28;20120;-41
2022/05/31 21:05:07;;;;;;;10.50;3.58;;;;;;;;;;10480012;28;20033;-41
2022/05/31 21:10:20;;;;;;;9.85;3.33;;;;;;;;;;10492086;28;20028;-42
2022/05/31 21:15:21;;;;;;;8.50;3.03;;;;;;;;;;10470809;28;20036;-42
2022/05/31 21:20:21;;;;;;;7.20;3.13;;;;;;;;;;10481914;28;20063;-42
2022/05/31 21:25:36;;;;;;;6.43;3.40;;;;;;;;;;10491997;28;20436;-41
2022/05/31 21:30:40;;;;;;;6.97;3.00;;;;;;;;;;10468798;28;20025;-41
2022/05/31 21:35:40;;;;;;;12.77;3.38;;;;;;;;;;10479910;28;20111;-40
2022/05/31 21:46:01;;;;;;;4.32;2.90;;;;;;;;;;10464758;28;20127;-41
2022/05/31 21:51:05;;;;;;;9.85;2.85;;;;;;;;;;10477578;28;20025;-42
2022/05/31 21:56:11;;;;;;;6.88;3.40;;;;;;;;;;10490169;28;20032;-41
2022/05/31 22:01:16;;;;;;;6.03;2.70;;;;;;;;;;10457075;28;20487;-43
2022/05/31 22:06:19;;;;;;;8.77;2.75;;;;;;;;;;10481511;28;20488;-41
2022/05/31 22:11:30;;;;;;;5.70;2.90;;;;;;;;;;10458255;28;20575;-46
2022/05/31 22:16:30;;;;;;;8.80;2.90;;;;;;;;;;10480029;28;20063;-46
2022/05/31 22:21:32;;;;;;;4.90;2.70;;;;;;;;;;10476946;28;20031;-43
2022/05/31 22:26:34;;;;;;;8.35;3.42;;;;;;;;;;10486416;28;20033;-42
2022/05/31 22:31:36;;;;;;;4.07;2.63;;;;;;;;;;10478549;28;20063;-41
2022/05/31 22:36:36;;;;;;;5.68;2.95;;;;;;;;;;10464705;28;20025;-42
2022/05/31 22:41:39;;;;;;;5.82;2.90;;;;;;;;;;10469193;28;20036;-44
2022/05/31 22:46:45;;;;;;;7.75;3.00;;;;;;;;;;10457591;28;20079;-44
2022/05/31 22:51:46;;;;;;;5.55;2.65;;;;;;;;;;10484629;28;20037;-42
2022/05/31 22:56:47;;;;;;;9.35;2.75;;;;;;;;;;10485383;28;20028;-42
2022/05/31 23:01:47;;;;;;;11.20;2.67;;;;;;;;;;10486836;28;20029;-41
2022/05/31 23:06:49;;;;;;;4.22;2.40;;;;;;;;;;10489430;28;20048;-41
2022/05/31 23:11:51;;;;;;;6.72;2.40;;;;;;;;;;10469645;28;20025;-42
2022/05/31 23:16:56;;;;;;;8.65;2.95;;;;;;;;;;10489322;28;20036;-42
2022/05/31 23:27:20;;;;;;;7.60;2.60;;;;;;;;;;10474228;28;20037;-42
2022/05/31 23:32:20;;;;;;;3.28;2.30;;;;;;;;;;10484282;28;20040;-41
2022/05/31 23:37:21;;;;;;;4.10;2.95;;;;;;;;;;10494004;28;20033;-43
2022/05/31 23:42:22;;;;;;;3.00;2.38;;;;;;;;;;10489327;28;20024;-43
2022/05/31 23:47:24;;;;;;;3.35;2.20;;;;;;;;;;10495086;28;20041;-42
2022/05/31 23:52:27;;;;;;;7.07;2.78;;;;;;;;;;10486245;28;20043;-42
2022/05/31 23:57:27;;;;;;;3.70;2.30;;;;;;;;;;10495849;28;20029;-43
